sensor_id;sensor_type;location;lat;lon;timestamp;P1;durP1;ratioP1;P2;durP2;ratioP2
19006;SDS011;9636;47.382;8.480;2023-03-14T00:00:25;1.47;;;1.03;;
19006;SDS011;9636;47.382;8.480;2023-03-14T00:02:52;2.10;;;1.03;;
19006;SDS011;9636;47.382;8.480;2023-03-14T00:05:19;1.97;;;1.17;;
19006;SDS011;9636;47.382;8.480;2023-03-14T00:07:46;1.40;;;1.00;;
19006;SDS011;9636;47.382;8.480;2023-03-14T00:10:13;1.50;;;1.13;;
19006;SDS011;9636;47.382;8.480;2023-03-14T00:12:42;2.13;;;1.10;;
19006;SDS011;9636;47.382;8.480;2023-03-14T00:15:09;1.17;;;1.00;;
19006;SDS011;9636;47.382;8.480;2023-03-14T00:17:37;1.90;;;1.20;;
19006;SDS011;9636;47.382;8.480;2023-03-14T00:20:05;1.37;;;1.03;;
19006;SDS011;9636;47.382;8.480;2023-03-14T00:22:36;0.83;;;0.83;;
19006;SDS011;9636;47.382;8.480;2023-03-14T00:25:04;1.60;;;0.90;;
19006;SDS011;9636;47.382;8.480;2023-03-14T00:27:31;1.43;;;1.10;;
19006;SDS011;9636;47.382;8.480;2023-03-14T00:30:00;1.73;;;1.03;;
19006;SDS011;9636;47.382;8.480;2023-03-14T00:32:26;1.10;;;0.80;;
19006;SDS011;9636;47.382;8.480;2023-03-14T00:34:53;1.87;;;0.90;;
19006;SDS011;9636;47.382;8.480;2023-03-14T00:37:20;1.00;;;0.80;;
19006;SDS011;9636;47.382;8.480;2023-03-14T00:39:47;2.30;;;0.90;;
19006;SDS011;9636;47.382;8.480;2023-03-14T00:42:14;1.57;;;1.20;;
19006;SDS011;9636;47.382;8.480;2023-03-14T00:44:40;1.47;;;1.00;;
19006;SDS011;9636;47.382;8.480;2023-03-14T00:47:09;2.83;;;1.10;;
19006;SDS011;9636;47.382;8.480;2023-03-14T00:49:35;1.27;;;1.00;;
19006;SDS011;9636;47.382;8.480;2023-03-14T00:52:02;1.37;;;0.90;;
19006;SDS011;9636;47.382;8.480;2023-03-14T00:54:29;1.60;;;1.10;;
19006;SDS011;9636;47.382;8.480;2023-03-14T00:56:57;2.03;;;1.17;;
19006;SDS011;9636;47.382;8.480;2023-03-14T00:59:23;0.90;;;0.90;;
19006;SDS011;9636;47.382;8.480;2023-03-14T01:01:50;1.10;;;1.00;;
19006;SDS011;9636;47.382;8.480;2023-03-14T01:04:18;1.07;;;0.97;;
19006;SDS011;9636;47.382;8.480;2023-03-14T01:06:45;1.20;;;1.07;;
19006;SDS011;9636;47.382;8.480;2023-03-14T01:09:12;1.40;;;1.20;;
19006;SDS011;9636;47.382;8.480;2023-03-14T01:11:39;0.70;;;0.70;;
19006;SDS011;9636;47.382;8.480;2023-03-14T01:14:05;1.03;;;0.83;;
19006;SDS011;9636;47.382;8.480;2023-03-14T01:16:33;1.80;;;1.00;;
19006;SDS011;9636;47.382;8.480;2023-03-14T01:19:01;1.30;;;1.10;;
19006;SDS011;9636;47.382;8.480;2023-03-14T01:21:30;1.03;;;0.93;;
19006;SDS011;9636;47.382;8.480;2023-03-14T01:23:59;1.13;;;1.00;;
19006;SDS011;9636;47.382;8.480;2023-03-14T01:26:27;1.37;;;1.07;;
19006;SDS011;9636;47.382;8.480;2023-03-14T01:28:56;2.10;;;1.10;;
19006;SDS011;9636;47.382;8.480;2023-03-14T01:31:23;1.10;;;1.00;;
19006;SDS011;9636;47.382;8.480;2023-03-14T01:33:50;1.30;;;0.90;;
19006;SDS011;9636;47.382;8.480;2023-03-14T01:36:18;1.07;;;0.97;;
19006;SDS011;9636;47.382;8.480;2023-03-14T01:38:47;0.90;;;0.67;;
19006;SDS011;9636;47.382;8.480;2023-03-14T01:41:15;0.80;;;0.80;;
19006;SDS011;9636;47.382;8.480;2023-03-14T01:43:43;0.63;;;0.63;;
19006;SDS011;9636;47.382;8.480;2023-03-14T01:46:21;0.90;;;0.87;;
19006;SDS011;9636;47.382;8.480;2023-03-14T01:48:55;0.97;;;0.87;;
19006;SDS011;9636;47.382;8.480;2023-03-14T01:51:29;1.53;;;1.00;;
19006;SDS011;9636;47.382;8.480;2023-03-14T01:54:02;0.97;;;0.80;;
19006;SDS011;9636;47.382;8.480;2023-03-14T01:56:32;0.87;;;0.83;;
19006;SDS011;9636;47.382;8.480;2023-03-14T01:58:59;1.00;;;0.80;;
19006;SDS011;9636;47.382;8.480;2023-03-14T02:01:30;0.80;;;0.80;;
19006;SDS011;9636;47.382;8.480;2023-03-14T02:03:58;0.60;;;0.60;;
19006;SDS011;9636;47.382;8.480;2023-03-14T02:06:31;1.00;;;0.90;;
19006;SDS011;9636;47.382;8.480;2023-03-14T02:09:05;1.37;;;0.90;;
19006;SDS011;9636;47.382;8.480;2023-03-14T02:11:32;0.87;;;0.70;;
19006;SDS011;9636;47.382;8.480;2023-03-14T02:13:59;1.13;;;0.87;;
19006;SDS011;9636;47.382;8.480;2023-03-14T02:16:27;0.73;;;0.73;;
19006;SDS011;9636;47.382;8.480;2023-03-14T02:18:54;0.90;;;0.80;;
19006;SDS011;9636;47.382;8.480;2023-03-14T02:21:23;0.97;;;0.80;;
19006;SDS011;9636;47.382;8.480;2023-03-14T02:23:58;0.87;;;0.70;;
19006;SDS011;9636;47.382;8.480;2023-03-14T02:26:36;0.80;;;0.80;;
19006;SDS011;9636;47.382;8.480;2023-03-14T02:29:07;0.70;;;0.70;;
19006;SDS011;9636;47.382;8.480;2023-03-14T02:31:34;0.87;;;0.70;;
19006;SDS011;9636;47.382;8.480;2023-03-14T02:34:01;1.17;;;0.80;;
19006;SDS011;9636;47.382;8.480;2023-03-14T02:36:28;1.10;;;0.70;;
19006;SDS011;9636;47.382;8.480;2023-03-14T02:38:58;2.03;;;0.83;;
19006;SDS011;9636;47.382;8.480;2023-03-14T02:41:33;1.37;;;0.80;;
19006;SDS011;9636;47.382;8.480;2023-03-14T02:44:00;1.00;;;0.80;;
19006;SDS011;9636;47.382;8.480;2023-03-14T02:46:28;0.90;;;0.80;;
19006;SDS011;9636;47.382;8.480;2023-03-14T02:48:56;1.20;;;0.80;;
19006;SDS011;9636;47.382;8.480;2023-03-14T02:51:27;0.90;;;0.80;;
19006;SDS011;9636;47.382;8.480;2023-03-14T02:53:54;1.37;;;0.63;;
19006;SDS011;9636;47.382;8.480;2023-03-14T02:56:21;1.63;;;0.90;;
19006;SDS011;9636;47.382;8.480;2023-03-14T02:58:48;0.70;;;0.70;;
19006;SDS011;9636;47.382;8.480;2023-03-14T03:01:15;0.70;;;0.70;;
19006;SDS011;9636;47.382;8.480;2023-03-14T03:03:43;1.03;;;0.70;;
19006;SDS011;9636;47.382;8.480;2023-03-14T03:06:10;0.93;;;0.80;;
19006;SDS011;9636;47.382;8.480;2023-03-14T03:08:36;1.20;;;0.90;;
19006;SDS011;9636;47.382;8.480;2023-03-14T03:11:03;0.70;;;0.70;;
19006;SDS011;9636;47.382;8.480;2023-03-14T03:13:30;0.70;;;0.70;;
19006;SDS011;9636;47.382;8.480;2023-03-14T03:15:57;0.70;;;0.70;;
19006;SDS011;9636;47.382;8.480;2023-03-14T03:18:24;0.77;;;0.77;;
19006;SDS011;9636;47.382;8.480;2023-03-14T03:20:52;0.60;;;0.60;;
19006;SDS011;9636;47.382;8.480;2023-03-14T03:23:19;0.70;;;0.70;;
19006;SDS011;9636;47.382;8.480;2023-03-14T03:25:49;0.60;;;0.60;;
19006;SDS011;9636;47.382;8.480;2023-03-14T03:28:17;1.27;;;0.80;;
19006;SDS011;9636;47.382;8.480;2023-03-14T03:30:43;0.87;;;0.87;;
19006;SDS011;9636;47.382;8.480;2023-03-14T03:33:10;0.60;;;0.60;;
19006;SDS011;9636;47.382;8.480;2023-03-14T03:35:44;1.03;;;0.70;;
19006;SDS011;9636;47.382;8.480;2023-03-14T03:38:13;0.70;;;0.70;;
19006;SDS011;9636;47.382;8.480;2023-03-14T03:40:41;0.70;;;0.70;;
19006;SDS011;9636;47.382;8.480;2023-03-14T03:43:08;1.43;;;0.83;;
19006;SDS011;9636;47.382;8.480;2023-03-14T03:45:35;0.60;;;0.60;;
19006;SDS011;9636;47.382;8.480;2023-03-14T03:48:01;0.80;;;0.63;;
19006;SDS011;9636;47.382;8.480;2023-03-14T03:50:28;1.07;;;0.80;;
19006;SDS011;9636;47.382;8.480;2023-03-14T03:52:55;1.43;;;0.60;;
19006;SDS011;9636;47.382;8.480;2023-03-14T03:55:23;0.80;;;0.60;;
19006;SDS011;9636;47.382;8.480;2023-03-14T03:57:53;0.67;;;0.67;;
19006;SDS011;9636;47.382;8.480;2023-03-14T04:00:19;0.77;;;0.60;;
19006;SDS011;9636;47.382;8.480;2023-03-14T04:02:46;0.87;;;0.87;;
19006;SDS011;9636;47.382;8.480;2023-03-14T04:05:13;0.63;;;0.63;;
19006;SDS011;9636;47.382;8.480;2023-03-14T04:07:40;0.53;;;0.53;;
19006;SDS011;9636;47.382;8.480;2023-03-14T04:10:07;0.60;;;0.60;;
19006;SDS011;9636;47.382;8.480;2023-03-14T04:12:36;0.70;;;0.70;;
19006;SDS011;9636;47.382;8.480;2023-03-14T04:15:03;0.60;;;0.60;;
19006;SDS011;9636;47.382;8.480;2023-03-14T04:17:30;0.63;;;0.63;;
19006;SDS011;9636;47.382;8.480;2023-03-14T04:19:57;0.53;;;0.53;;
19006;SDS011;9636;47.382;8.480;2023-03-14T04:22:24;0.83;;;0.70;;
19006;SDS011;9636;47.382;8.480;2023-03-14T04:24:50;0.70;;;0.60;;
19006;SDS011;9636;47.382;8.480;2023-03-14T04:27:17;0.60;;;0.60;;
19006;SDS011;9636;47.382;8.480;2023-03-14T04:29:45;0.70;;;0.70;;
19006;SDS011;9636;47.382;8.480;2023-03-14T04:32:12;0.77;;;0.60;;
19006;SDS011;9636;47.382;8.480;2023-03-14T04:34:39;0.57;;;0.57;;
19006;SDS011;9636;47.382;8.480;2023-03-14T04:37:06;0.50;;;0.50;;
19006;SDS011;9636;47.382;8.480;2023-03-14T04:39:33;0.80;;;0.70;;
19006;SDS011;9636;47.382;8.480;2023-03-14T04:42:00;0.60;;;0.60;;
19006;SDS011;9636;47.382;8.480;2023-03-14T04:44:27;0.60;;;0.60;;
19006;SDS011;9636;47.382;8.480;2023-03-14T04:46:55;0.60;;;0.60;;
19006;SDS011;9636;47.382;8.480;2023-03-14T04:49:22;0.53;;;0.53;;
19006;SDS011;9636;47.382;8.480;2023-03-14T04:51:49;0.70;;;0.53;;
19006;SDS011;9636;47.382;8.480;2023-03-14T04:54:16;0.60;;;0.60;;
19006;SDS011;9636;47.382;8.480;2023-03-14T04:56:43;0.60;;;0.60;;
19006;SDS011;9636;47.382;8.480;2023-03-14T04:59:09;0.80;;;0.80;;
19006;SDS011;9636;47.382;8.480;2023-03-14T05:01:36;1.43;;;0.70;;
19006;SDS011;9636;47.382;8.480;2023-03-14T05:04:04;0.53;;;0.53;;
19006;SDS011;9636;47.382;8.480;2023-03-14T05:06:31;0.60;;;0.60;;
19006;SDS011;9636;47.382;8.480;2023-03-14T05:08:58;0.50;;;0.50;;
19006;SDS011;9636;47.382;8.480;2023-03-14T05:11:25;0.60;;;0.60;;
19006;SDS011;9636;47.382;8.480;2023-03-14T05:13:52;0.73;;;0.70;;
19006;SDS011;9636;47.382;8.480;2023-03-14T05:16:18;0.60;;;0.60;;
19006;SDS011;9636;47.382;8.480;2023-03-14T05:18:45;0.50;;;0.50;;
19006;SDS011;9636;47.382;8.480;2023-03-14T05:21:13;0.60;;;0.60;;
19006;SDS011;9636;47.382;8.480;2023-03-14T05:23:40;0.87;;;0.60;;
19006;SDS011;9636;47.382;8.480;2023-03-14T05:26:07;0.70;;;0.70;;
19006;SDS011;9636;47.382;8.480;2023-03-14T05:28:34;0.53;;;0.53;;
19006;SDS011;9636;47.382;8.480;2023-03-14T05:31:00;0.50;;;0.50;;
19006;SDS011;9636;47.382;8.480;2023-03-14T05:33:31;0.50;;;0.50;;
19006;SDS011;9636;47.382;8.480;2023-03-14T05:35:58;0.60;;;0.60;;
19006;SDS011;9636;47.382;8.480;2023-03-14T05:38:26;0.50;;;0.50;;
19006;SDS011;9636;47.382;8.480;2023-03-14T05:40:53;0.60;;;0.60;;
19006;SDS011;9636;47.382;8.480;2023-03-14T05:43:20;0.57;;;0.57;;
19006;SDS011;9636;47.382;8.480;2023-03-14T05:45:46;0.50;;;0.50;;
19006;SDS011;9636;47.382;8.480;2023-03-14T05:48:13;0.50;;;0.50;;
19006;SDS011;9636;47.382;8.480;2023-03-14T05:50:41;1.07;;;0.60;;
19006;SDS011;9636;47.382;8.480;2023-03-14T05:53:08;0.40;;;0.40;;
19006;SDS011;9636;47.382;8.480;2023-03-14T05:55:36;0.40;;;0.40;;
19006;SDS011;9636;47.382;8.480;2023-03-14T05:58:03;0.50;;;0.50;;
19006;SDS011;9636;47.382;8.480;2023-03-14T06:00:30;0.60;;;0.60;;
19006;SDS011;9636;47.382;8.480;2023-03-14T06:02:56;0.50;;;0.50;;
19006;SDS011;9636;47.382;8.480;2023-03-14T06:05:23;0.60;;;0.60;;
19006;SDS011;9636;47.382;8.480;2023-03-14T06:07:50;0.63;;;0.60;;
19006;SDS011;9636;47.382;8.480;2023-03-14T06:10:17;0.60;;;0.60;;
19006;SDS011;9636;47.382;8.480;2023-03-14T06:12:45;0.50;;;0.50;;
19006;SDS011;9636;47.382;8.480;2023-03-14T06:15:12;0.60;;;0.60;;
19006;SDS011;9636;47.382;8.480;2023-03-14T06:17:38;0.50;;;0.50;;
19006;SDS011;9636;47.382;8.480;2023-03-14T06:20:05;0.50;;;0.50;;
19006;SDS011;9636;47.382;8.480;2023-03-14T06:22:33;0.53;;;0.53;;
19006;SDS011;9636;47.382;8.480;2023-03-14T06:25:00;0.40;;;0.40;;
19006;SDS011;9636;47.382;8.480;2023-03-14T06:27:26;0.70;;;0.70;;
19006;SDS011;9636;47.382;8.480;2023-03-14T06:29:54;0.60;;;0.60;;
19006;SDS011;9636;47.382;8.480;2023-03-14T06:32:21;0.60;;;0.60;;
19006;SDS011;9636;47.382;8.480;2023-03-14T06:34:48;0.60;;;0.60;;
19006;SDS011;9636;47.382;8.480;2023-03-14T06:37:15;0.60;;;0.60;;
19006;SDS011;9636;47.382;8.480;2023-03-14T06:39:42;0.47;;;0.43;;
19006;SDS011;9636;47.382;8.480;2023-03-14T06:42:09;0.67;;;0.63;;
19006;SDS011;9636;47.382;8.480;2023-03-14T06:44:36;0.50;;;0.50;;
19006;SDS011;9636;47.382;8.480;2023-03-14T06:47:04;0.50;;;0.50;;
19006;SDS011;9636;47.382;8.480;2023-03-14T06:49:31;0.43;;;0.43;;
19006;SDS011;9636;47.382;8.480;2023-03-14T06:51:58;0.60;;;0.60;;
19006;SDS011;9636;47.382;8.480;2023-03-14T06:54:24;0.50;;;0.50;;
19006;SDS011;9636;47.382;8.480;2023-03-14T06:56:51;0.47;;;0.47;;
19006;SDS011;9636;47.382;8.480;2023-03-14T06:59:18;0.40;;;0.40;;
19006;SDS011;9636;47.382;8.480;2023-03-14T07:01:45;0.40;;;0.40;;
19006;SDS011;9636;47.382;8.480;2023-03-14T07:04:14;0.40;;;0.40;;
19006;SDS011;9636;47.382;8.480;2023-03-14T07:06:41;0.53;;;0.53;;
19006;SDS011;9636;47.382;8.480;2023-03-14T07:09:09;0.50;;;0.50;;
19006;SDS011;9636;47.382;8.480;2023-03-14T07:11:36;0.50;;;0.50;;
19006;SDS011;9636;47.382;8.480;2023-03-14T07:14:03;1.03;;;0.60;;
19006;SDS011;9636;47.382;8.480;2023-03-14T07:16:30;0.50;;;0.50;;
19006;SDS011;9636;47.382;8.480;2023-03-14T07:18:58;0.60;;;0.60;;
19006;SDS011;9636;47.382;8.480;2023-03-14T07:21:26;0.47;;;0.47;;
19006;SDS011;9636;47.382;8.480;2023-03-14T07:23:53;0.40;;;0.40;;
19006;SDS011;9636;47.382;8.480;2023-03-14T07:26:20;0.50;;;0.50;;
19006;SDS011;9636;47.382;8.480;2023-03-14T07:28:47;0.50;;;0.50;;
19006;SDS011;9636;47.382;8.480;2023-03-14T07:31:13;1.00;;;0.50;;
19006;SDS011;9636;47.382;8.480;2023-03-14T07:33:40;0.33;;;0.33;;
19006;SDS011;9636;47.382;8.480;2023-03-14T07:36:07;0.73;;;0.40;;
19006;SDS011;9636;47.382;8.480;2023-03-14T07:38:36;0.40;;;0.40;;
19006;SDS011;9636;47.382;8.480;2023-03-14T07:41:04;0.50;;;0.50;;
19006;SDS011;9636;47.382;8.480;2023-03-14T07:43:32;0.40;;;0.40;;
19006;SDS011;9636;47.382;8.480;2023-03-14T07:45:59;0.40;;;0.40;;
19006;SDS011;9636;47.382;8.480;2023-03-14T07:48:26;0.50;;;0.50;;
19006;SDS011;9636;47.382;8.480;2023-03-14T07:50:53;0.50;;;0.50;;
19006;SDS011;9636;47.382;8.480;2023-03-14T07:53:21;0.50;;;0.50;;
19006;SDS011;9636;47.382;8.480;2023-03-14T07:55:50;0.40;;;0.40;;
19006;SDS011;9636;47.382;8.480;2023-03-14T07:58:20;0.57;;;0.57;;
19006;SDS011;9636;47.382;8.480;2023-03-14T08:00:51;0.60;;;0.50;;
19006;SDS011;9636;47.382;8.480;2023-03-14T08:03:26;0.50;;;0.50;;
19006;SDS011;9636;47.382;8.480;2023-03-14T08:05:53;0.73;;;0.50;;
19006;SDS011;9636;47.382;8.480;2023-03-14T08:08:19;0.60;;;0.60;;
19006;SDS011;9636;47.382;8.480;2023-03-14T08:10:46;0.40;;;0.40;;
19006;SDS011;9636;47.382;8.480;2023-03-14T08:13:14;0.40;;;0.40;;
19006;SDS011;9636;47.382;8.480;2023-03-14T08:15:41;0.30;;;0.30;;
19006;SDS011;9636;47.382;8.480;2023-03-14T08:18:08;0.47;;;0.40;;
19006;SDS011;9636;47.382;8.480;2023-03-14T08:20:35;0.50;;;0.50;;
19006;SDS011;9636;47.382;8.480;2023-03-14T08:23:02;0.40;;;0.40;;
19006;SDS011;9636;47.382;8.480;2023-03-14T08:25:29;0.43;;;0.43;;
19006;SDS011;9636;47.382;8.480;2023-03-14T08:27:57;0.40;;;0.40;;
19006;SDS011;9636;47.382;8.480;2023-03-14T08:30:25;1.17;;;0.60;;
19006;SDS011;9636;47.382;8.480;2023-03-14T08:32:52;0.40;;;0.40;;
19006;SDS011;9636;47.382;8.480;2023-03-14T08:35:20;0.50;;;0.50;;
19006;SDS011;9636;47.382;8.480;2023-03-14T08:37:47;0.40;;;0.40;;
19006;SDS011;9636;47.382;8.480;2023-03-14T08:40:14;0.43;;;0.43;;
19006;SDS011;9636;47.382;8.480;2023-03-14T08:42:42;0.43;;;0.43;;
19006;SDS011;9636;47.382;8.480;2023-03-14T08:45:10;0.40;;;0.40;;
19006;SDS011;9636;47.382;8.480;2023-03-14T08:47:40;0.40;;;0.40;;
19006;SDS011;9636;47.382;8.480;2023-03-14T08:50:08;0.50;;;0.50;;
19006;SDS011;9636;47.382;8.480;2023-03-14T08:52:35;0.40;;;0.40;;
19006;SDS011;9636;47.382;8.480;2023-03-14T08:55:05;0.40;;;0.40;;
19006;SDS011;9636;47.382;8.480;2023-03-14T08:57:33;0.50;;;0.50;;
19006;SDS011;9636;47.382;8.480;2023-03-14T08:59:59;0.63;;;0.50;;
19006;SDS011;9636;47.382;8.480;2023-03-14T09:02:30;0.70;;;0.40;;
19006;SDS011;9636;47.382;8.480;2023-03-14T09:04:58;0.67;;;0.60;;
19006;SDS011;9636;47.382;8.480;2023-03-14T09:07:25;0.40;;;0.40;;
19006;SDS011;9636;47.382;8.480;2023-03-14T09:09:52;0.47;;;0.47;;
19006;SDS011;9636;47.382;8.480;2023-03-14T09:12:19;0.40;;;0.40;;
19006;SDS011;9636;47.382;8.480;2023-03-14T09:14:45;0.50;;;0.50;;
19006;SDS011;9636;47.382;8.480;2023-03-14T09:17:12;0.40;;;0.40;;
19006;SDS011;9636;47.382;8.480;2023-03-14T09:19:39;0.40;;;0.40;;
19006;SDS011;9636;47.382;8.480;2023-03-14T09:22:07;0.47;;;0.47;;
19006;SDS011;9636;47.382;8.480;2023-03-14T09:24:34;0.40;;;0.40;;
19006;SDS011;9636;47.382;8.480;2023-03-14T09:27:01;0.40;;;0.40;;
19006;SDS011;9636;47.382;8.480;2023-03-14T09:29:27;0.43;;;0.43;;
19006;SDS011;9636;47.382;8.480;2023-03-14T09:31:54;0.40;;;0.40;;
19006;SDS011;9636;47.382;8.480;2023-03-14T09:34:22;0.53;;;0.40;;
19006;SDS011;9636;47.382;8.480;2023-03-14T09:36:49;0.50;;;0.50;;
19006;SDS011;9636;47.382;8.480;2023-03-14T09:39:17;1.00;;;0.60;;
19006;SDS011;9636;47.382;8.480;2023-03-14T09:41:44;0.40;;;0.40;;
19006;SDS011;9636;47.382;8.480;2023-03-14T09:44:14;0.30;;;0.30;;
19006;SDS011;9636;47.382;8.480;2023-03-14T09:46:43;0.50;;;0.50;;
19006;SDS011;9636;47.382;8.480;2023-03-14T09:49:14;0.40;;;0.40;;
19006;SDS011;9636;47.382;8.480;2023-03-14T09:51:46;0.43;;;0.43;;
19006;SDS011;9636;47.382;8.480;2023-03-14T09:54:22;0.63;;;0.40;;
19006;SDS011;9636;47.382;8.480;2023-03-14T09:56:56;0.43;;;0.43;;
19006;SDS011;9636;47.382;8.480;2023-03-14T09:59:23;0.40;;;0.40;;
19006;SDS011;9636;47.382;8.480;2023-03-14T10:01:51;0.40;;;0.40;;
19006;SDS011;9636;47.382;8.480;2023-03-14T10:04:21;0.50;;;0.50;;
19006;SDS011;9636;47.382;8.480;2023-03-14T10:06:49;0.30;;;0.30;;
19006;SDS011;9636;47.382;8.480;2023-03-14T10:09:17;0.33;;;0.33;;
19006;SDS011;9636;47.382;8.480;2023-03-14T10:11:51;0.40;;;0.40;;
19006;SDS011;9636;47.382;8.480;2023-03-14T10:14:28;0.37;;;0.37;;
19006;SDS011;9636;47.382;8.480;2023-03-14T10:17:04;0.40;;;0.40;;
19006;SDS011;9636;47.382;8.480;2023-03-14T10:19:33;0.40;;;0.40;;
19006;SDS011;9636;47.382;8.480;2023-03-14T10:22:00;0.40;;;0.40;;
19006;SDS011;9636;47.382;8.480;2023-03-14T10:24:30;0.70;;;0.50;;
19006;SDS011;9636;47.382;8.480;2023-03-14T10:26:59;0.40;;;0.40;;
19006;SDS011;9636;47.382;8.480;2023-03-14T10:29:27;0.33;;;0.33;;
19006;SDS011;9636;47.382;8.480;2023-03-14T10:31:57;0.30;;;0.30;;
19006;SDS011;9636;47.382;8.480;2023-03-14T10:34:26;0.40;;;0.40;;
19006;SDS011;9636;47.382;8.480;2023-03-14T10:36:55;0.40;;;0.40;;
19006;SDS011;9636;47.382;8.480;2023-03-14T10:39:27;0.35;;;0.35;;
19006;SDS011;9636;47.382;8.480;2023-03-14T10:42:04;0.50;;;0.50;;
19006;SDS011;9636;47.382;8.480;2023-03-14T10:44:37;0.38;;;0.38;;
19006;SDS011;9636;47.382;8.480;2023-03-14T10:47:05;0.50;;;0.40;;
19006;SDS011;9636;47.382;8.480;2023-03-14T10:49:39;0.40;;;0.40;;
19006;SDS011;9636;47.382;8.480;2023-03-14T10:52:13;0.40;;;0.40;;
19006;SDS011;9636;47.382;8.480;2023-03-14T10:54:49;0.60;;;0.50;;
19006;SDS011;9636;47.382;8.480;2023-03-14T10:57:22;0.95;;;0.38;;
19006;SDS011;9636;47.382;8.480;2023-03-14T10:59:50;0.50;;;0.40;;
19006;SDS011;9636;47.382;8.480;2023-03-14T11:02:22;0.40;;;0.40;;
19006;SDS011;9636;47.382;8.480;2023-03-14T11:05:09;0.40;;;0.40;;
19006;SDS011;9636;47.382;8.480;2023-03-14T11:07:50;0.40;;;0.40;;
19006;SDS011;9636;47.382;8.480;2023-03-14T11:10:23;0.40;;;0.40;;
19006;SDS011;9636;47.382;8.480;2023-03-14T11:12:57;0.40;;;0.40;;
19006;SDS011;9636;47.382;8.480;2023-03-14T11:15:32;0.47;;;0.47;;
19006;SDS011;9636;47.382;8.480;2023-03-14T11:18:12;0.30;;;0.30;;
19006;SDS011;9636;47.382;8.480;2023-03-14T11:20:53;0.40;;;0.40;;
19006;SDS011;9636;47.382;8.480;2023-03-14T11:23:26;0.40;;;0.40;;
19006;SDS011;9636;47.382;8.480;2023-03-14T11:26:00;0.40;;;0.40;;
19006;SDS011;9636;47.382;8.480;2023-03-14T11:28:36;0.47;;;0.47;;
19006;SDS011;9636;47.382;8.480;2023-03-14T11:31:05;0.30;;;0.30;;
19006;SDS011;9636;47.382;8.480;2023-03-14T11:33:43;0.40;;;0.40;;
19006;SDS011;9636;47.382;8.480;2023-03-14T11:36:18;0.30;;;0.30;;
19006;SDS011;9636;47.382;8.480;2023-03-14T11:38:48;0.37;;;0.37;;
19006;SDS011;9636;47.382;8.480;2023-03-14T11:41:17;0.40;;;0.40;;
19006;SDS011;9636;47.382;8.480;2023-03-14T11:43:51;0.33;;;0.33;;
19006;SDS011;9636;47.382;8.480;2023-03-14T11:46:21;0.50;;;0.50;;
19006;SDS011;9636;47.382;8.480;2023-03-14T11:48:55;0.30;;;0.30;;
19006;SDS011;9636;47.382;8.480;2023-03-14T11:51:28;0.30;;;0.30;;
19006;SDS011;9636;47.382;8.480;2023-03-14T11:54:01;0.40;;;0.40;;
19006;SDS011;9636;47.382;8.480;2023-03-14T11:56:36;0.30;;;0.30;;
19006;SDS011;9636;47.382;8.480;2023-03-14T11:59:09;0.40;;;0.40;;
19006;SDS011;9636;47.382;8.480;2023-03-14T12:01:45;0.40;;;0.40;;
19006;SDS011;9636;47.382;8.480;2023-03-14T12:04:22;0.40;;;0.40;;
19006;SDS011;9636;47.382;8.480;2023-03-14T12:07:01;0.40;;;0.40;;
19006;SDS011;9636;47.382;8.480;2023-03-14T12:09:33;0.50;;;0.50;;
19006;SDS011;9636;47.382;8.480;2023-03-14T12:12:04;0.40;;;0.30;;
19006;SDS011;9636;47.382;8.480;2023-03-14T12:14:32;0.30;;;0.30;;
19006;SDS011;9636;47.382;8.480;2023-03-14T12:17:04;1.07;;;0.40;;
19006;SDS011;9636;47.382;8.480;2023-03-14T12:19:36;0.30;;;0.30;;
19006;SDS011;9636;47.382;8.480;2023-03-14T12:22:12;0.40;;;0.40;;
19006;SDS011;9636;47.382;8.480;2023-03-14T12:24:48;0.30;;;0.30;;
19006;SDS011;9636;47.382;8.480;2023-03-14T12:30:13;0.50;;;0.50;;
19006;SDS011;9636;47.382;8.480;2023-03-14T12:36:02;0.50;;;0.50;;
19006;SDS011;9636;47.382;8.480;2023-03-14T12:38:52;0.40;;;0.40;;
19006;SDS011;9636;47.382;8.480;2023-03-14T12:41:51;0.40;;;0.40;;
19006;SDS011;9636;47.382;8.480;2023-03-14T12:50:13;0.23;;;0.23;;
19006;SDS011;9636;47.382;8.480;2023-03-14T12:52:46;0.30;;;0.30;;
19006;SDS011;9636;47.382;8.480;2023-03-14T12:55:21;0.30;;;0.30;;
19006;SDS011;9636;47.382;8.480;2023-03-14T12:57:58;0.20;;;0.20;;
19006;SDS011;9636;47.382;8.480;2023-03-14T13:00:33;0.33;;;0.33;;
19006;SDS011;9636;47.382;8.480;2023-03-14T13:03:12;0.43;;;0.43;;
19006;SDS011;9636;47.382;8.480;2023-03-14T13:05:51;0.27;;;0.27;;
19006;SDS011;9636;47.382;8.480;2023-03-14T13:08:32;0.30;;;0.30;;
19006;SDS011;9636;47.382;8.480;2023-03-14T13:11:01;0.30;;;0.30;;
19006;SDS011;9636;47.382;8.480;2023-03-14T13:13:29;0.40;;;0.40;;
19006;SDS011;9636;47.382;8.480;2023-03-14T13:15:57;0.40;;;0.40;;
19006;SDS011;9636;47.382;8.480;2023-03-14T13:18:29;0.50;;;0.50;;
19006;SDS011;9636;47.382;8.480;2023-03-14T13:21:02;0.50;;;0.50;;
19006;SDS011;9636;47.382;8.480;2023-03-14T13:23:32;0.40;;;0.40;;
19006;SDS011;9636;47.382;8.480;2023-03-14T13:26:02;0.30;;;0.30;;
19006;SDS011;9636;47.382;8.480;2023-03-14T13:28:29;0.30;;;0.30;;
19006;SDS011;9636;47.382;8.480;2023-03-14T13:30:58;0.40;;;0.40;;
19006;SDS011;9636;47.382;8.480;2023-03-14T13:33:27;0.30;;;0.30;;
19006;SDS011;9636;47.382;8.480;2023-03-14T13:35:55;0.40;;;0.40;;
19006;SDS011;9636;47.382;8.480;2023-03-14T13:38:23;0.40;;;0.40;;
19006;SDS011;9636;47.382;8.480;2023-03-14T13:40:53;0.47;;;0.47;;
19006;SDS011;9636;47.382;8.480;2023-03-14T13:43:25;0.30;;;0.30;;
19006;SDS011;9636;47.382;8.480;2023-03-14T13:45:56;0.30;;;0.30;;
19006;SDS011;9636;47.382;8.480;2023-03-14T13:48:30;0.37;;;0.37;;
19006;SDS011;9636;47.382;8.480;2023-03-14T13:50:59;0.40;;;0.40;;
19006;SDS011;9636;47.382;8.480;2023-03-14T13:53:29;0.30;;;0.30;;
19006;SDS011;9636;47.382;8.480;2023-03-14T13:55:56;0.50;;;0.33;;
19006;SDS011;9636;47.382;8.480;2023-03-14T13:58:27;0.40;;;0.40;;
19006;SDS011;9636;47.382;8.480;2023-03-14T14:01:04;0.40;;;0.40;;
19006;SDS011;9636;47.382;8.480;2023-03-14T14:03:36;0.50;;;0.30;;
19006;SDS011;9636;47.382;8.480;2023-03-14T14:06:07;0.30;;;0.30;;
19006;SDS011;9636;47.382;8.480;2023-03-14T14:08:42;0.40;;;0.40;;
19006;SDS011;9636;47.382;8.480;2023-03-14T14:11:10;0.30;;;0.30;;
19006;SDS011;9636;47.382;8.480;2023-03-14T14:13:47;0.30;;;0.30;;
19006;SDS011;9636;47.382;8.480;2023-03-14T14:16:16;0.40;;;0.40;;
19006;SDS011;9636;47.382;8.480;2023-03-14T14:18:50;0.30;;;0.30;;
19006;SDS011;9636;47.382;8.480;2023-03-14T14:21:18;0.40;;;0.40;;
19006;SDS011;9636;47.382;8.480;2023-03-14T14:23:45;0.37;;;0.37;;
19006;SDS011;9636;47.382;8.480;2023-03-14T14:26:13;0.40;;;0.40;;
19006;SDS011;9636;47.382;8.480;2023-03-14T14:28:43;0.50;;;0.50;;
19006;SDS011;9636;47.382;8.480;2023-03-14T14:31:20;0.30;;;0.30;;
19006;SDS011;9636;47.382;8.480;2023-03-14T14:33:58;0.40;;;0.40;;
19006;SDS011;9636;47.382;8.480;2023-03-14T14:36:27;0.30;;;0.30;;
19006;SDS011;9636;47.382;8.480;2023-03-14T14:38:59;0.40;;;0.40;;
19006;SDS011;9636;47.382;8.480;2023-03-14T14:41:30;0.30;;;0.30;;
19006;SDS011;9636;47.382;8.480;2023-03-14T14:43:58;0.97;;;0.40;;
19006;SDS011;9636;47.382;8.480;2023-03-14T14:46:28;0.30;;;0.30;;
19006;SDS011;9636;47.382;8.480;2023-03-14T14:49:01;0.30;;;0.30;;
19006;SDS011;9636;47.382;8.480;2023-03-14T14:51:34;0.30;;;0.30;;
19006;SDS011;9636;47.382;8.480;2023-03-14T14:54:10;1.25;;;0.40;;
19006;SDS011;9636;47.382;8.480;2023-03-14T14:56:39;0.40;;;0.40;;
19006;SDS011;9636;47.382;8.480;2023-03-14T14:59:17;1.13;;;0.40;;
19006;SDS011;9636;47.382;8.480;2023-03-14T15:01:48;0.30;;;0.30;;
19006;SDS011;9636;47.382;8.480;2023-03-14T15:04:16;0.30;;;0.30;;
19006;SDS011;9636;47.382;8.480;2023-03-14T15:06:43;1.50;;;0.40;;
19006;SDS011;9636;47.382;8.480;2023-03-14T15:09:13;0.30;;;0.30;;
19006;SDS011;9636;47.382;8.480;2023-03-14T15:11:41;0.40;;;0.40;;
19006;SDS011;9636;47.382;8.480;2023-03-14T15:14:08;0.40;;;0.40;;
19006;SDS011;9636;47.382;8.480;2023-03-14T15:16:35;0.40;;;0.40;;
19006;SDS011;9636;47.382;8.480;2023-03-14T15:19:08;0.30;;;0.30;;
19006;SDS011;9636;47.382;8.480;2023-03-14T15:21:45;0.50;;;0.33;;
19006;SDS011;9636;47.382;8.480;2023-03-14T15:24:12;0.40;;;0.40;;